createdAt,value
2023-01-15T00:00:53.111Z,1.50
2023-01-15T00:03:25.100Z,1.50
2023-01-15T00:05:57.187Z,1.03
2023-01-15T00:08:29.187Z,1.20
2023-01-15T00:11:04.047Z,1.43
2023-01-15T00:13:35.789Z,1.37
2023-01-15T00:16:12.578Z,1.70
2023-01-15T00:18:44.451Z,1.57
2023-01-15T00:21:16.119Z,1.73
2023-01-15T00:24:06.787Z,1.50
2023-01-15T00:26:57.699Z,1.33
2023-01-15T00:29:29.671Z,1.10
2023-01-15T00:32:06.623Z,1.57
2023-01-15T00:34:38.418Z,1.40
2023-01-15T00:37:10.463Z,1.43
2023-01-15T00:39:42.322Z,1.30
2023-01-15T00:42:13.999Z,1.63
2023-01-15T00:44:46.806Z,1.27
2023-01-15T00:47:18.532Z,1.63
2023-01-15T00:49:51.516Z,1.30
2023-01-15T00:52:23.213Z,1.20
2023-01-15T00:54:54.879Z,1.73
2023-01-15T00:57:27.329Z,1.30
2023-01-15T00:59:59.316Z,1.37
2023-01-15T01:02:31.179Z,1.30
2023-01-15T01:05:02.948Z,1.47
2023-01-15T01:07:35.188Z,1.13
2023-01-15T01:10:09.276Z,1.23
2023-01-15T01:12:40.993Z,1.50
2023-01-15T01:15:12.731Z,1.13
2023-01-15T01:17:44.465Z,1.30
2023-01-15T01:20:18.681Z,0.77
2023-01-15T01:22:53.280Z,1.20
2023-01-15T01:25:25.275Z,1.17
2023-01-15T01:27:56.949Z,1.10
2023-01-15T01:30:28.645Z,1.30
2023-01-15T01:33:00.340Z,1.10
2023-01-15T01:35:32.029Z,0.90
2023-01-15T01:38:04.007Z,1.37
2023-01-15T01:40:38.236Z,1.20
2023-01-15T01:43:20.528Z,1.30
2023-01-15T01:45:53.631Z,1.20
2023-01-15T01:48:33.757Z,1.17
2023-01-15T01:51:06.170Z,1.20
2023-01-15T01:53:38.567Z,1.37
2023-01-15T01:56:11.761Z,1.27
2023-01-15T01:58:47.604Z,0.90
2023-01-15T02:01:20.827Z,1.20
2023-01-15T02:03:53.347Z,1.50
2023-01-15T02:06:26.920Z,1.30
2023-01-15T02:08:58.609Z,1.00
2023-01-15T02:11:31.406Z,1.20
2023-01-15T02:14:24.068Z,0.77
2023-01-15T02:17:14.874Z,0.87
2023-01-15T02:20:01.749Z,1.20
2023-01-15T02:22:47.869Z,1.70
2023-01-15T02:25:24.561Z,0.97
2023-01-15T02:28:18.455Z,1.50
2023-01-15T02:30:59.379Z,1.30
2023-01-15T02:33:38.066Z,0.83
2023-01-15T02:36:15.026Z,0.70
2023-01-15T02:38:49.544Z,1.30
2023-01-15T02:41:30.583Z,1.27
2023-01-15T02:44:05.273Z,1.30
2023-01-15T02:46:39.145Z,1.27
2023-01-15T02:49:17.727Z,1.10
2023-01-15T02:52:22.747Z,1.03
2023-01-15T02:55:08.636Z,0.70
2023-01-15T02:57:48.709Z,1.13
2023-01-15T03:00:24.715Z,1.20
2023-01-15T03:03:06.195Z,0.93
2023-01-15T03:05:51.917Z,0.83
2023-01-15T03:08:23.827Z,1.20
2023-01-15T03:11:12.240Z,0.97
2023-01-15T03:14:15.808Z,1.00
2023-01-15T03:16:53.857Z,1.20
2023-01-15T03:19:40.329Z,1.10
2023-01-15T03:22:34.110Z,0.90
2023-01-15T03:25:18.174Z,0.77
2023-01-15T03:27:59.540Z,1.03
2023-01-15T03:30:34.166Z,1.07
2023-01-15T03:33:06.309Z,1.23
2023-01-15T03:35:49.705Z,0.73
2023-01-15T03:38:40.787Z,1.00
2023-01-15T03:41:44.794Z,1.10
2023-01-15T03:44:37.414Z,1.00
2023-01-15T03:47:29.787Z,1.13
2023-01-15T03:50:13.238Z,1.53
2023-01-15T03:53:20.338Z,1.07
2023-01-15T03:56:10.639Z,0.77
2023-01-15T03:58:56.447Z,1.20
2023-01-15T04:01:42.616Z,1.00
2023-01-15T04:04:16.670Z,1.20
2023-01-15T04:06:49.905Z,1.00
2023-01-15T04:09:22.518Z,1.07
2023-01-15T04:12:01.471Z,0.80
2023-01-15T04:14:36.677Z,1.40
2023-01-15T04:17:13.168Z,1.30
2023-01-15T04:19:44.872Z,1.67
2023-01-15T04:22:17.698Z,0.97
2023-01-15T04:24:50.530Z,1.13
2023-01-15T04:27:22.333Z,1.23
2023-01-15T04:29:54.241Z,1.50
2023-01-15T04:32:25.953Z,0.93
2023-01-15T04:34:57.713Z,1.00
2023-01-15T04:37:29.417Z,1.37
2023-01-15T04:40:01.153Z,1.27
2023-01-15T04:42:51.398Z,1.23
2023-01-15T04:45:23.079Z,1.17
2023-01-15T04:47:54.831Z,0.97
2023-01-15T04:50:26.524Z,1.10
2023-01-15T04:52:58.210Z,1.37
2023-01-15T04:55:30.867Z,1.20
2023-01-15T04:58:03.096Z,1.17
2023-01-15T05:00:34.798Z,1.00
2023-01-15T05:03:06.526Z,1.00
2023-01-15T05:05:38.202Z,1.27
2023-01-15T05:08:10.385Z,1.40
2023-01-15T05:10:42.086Z,1.07
2023-01-15T05:13:13.792Z,1.20
2023-01-15T05:15:46.344Z,1.10
2023-01-15T05:18:18.044Z,1.87
2023-01-15T05:20:51.295Z,1.20
2023-01-15T05:23:23.296Z,1.13
2023-01-15T05:25:54.984Z,1.00
2023-01-15T05:28:26.676Z,1.13
2023-01-15T05:30:58.434Z,1.07
2023-01-15T05:33:30.151Z,1.33
2023-01-15T05:36:07.390Z,1.43
2023-01-15T05:38:39.608Z,1.17
2023-01-15T05:41:35.729Z,1.10
2023-01-15T05:44:10.619Z,1.37
2023-01-15T05:46:44.680Z,0.87
2023-01-15T05:49:19.526Z,1.30
2023-01-15T05:51:52.493Z,1.40
2023-01-15T05:54:30.289Z,1.60
2023-01-15T05:57:02.569Z,1.10
2023-01-15T05:59:34.341Z,1.23
2023-01-15T06:02:06.106Z,1.20
2023-01-15T06:04:37.833Z,1.60
2023-01-15T06:07:09.546Z,1.03
2023-01-15T06:09:41.299Z,1.10
2023-01-15T06:12:13.007Z,1.10
2023-01-15T06:14:44.683Z,1.20
2023-01-15T06:17:16.376Z,1.37
2023-01-15T06:19:48.104Z,1.10
2023-01-15T06:22:19.832Z,1.00
2023-01-15T06:24:51.539Z,0.93
2023-01-15T06:27:24.956Z,1.40
2023-01-15T06:29:58.928Z,1.27
2023-01-15T06:32:30.686Z,1.00
2023-01-15T06:35:02.474Z,0.90
2023-01-15T06:37:34.266Z,1.40
2023-01-15T06:40:06.688Z,1.20
2023-01-15T06:42:57.180Z,1.20
2023-01-15T06:45:54.642Z,1.23
2023-01-15T06:48:27.115Z,0.90
2023-01-15T06:50:59.462Z,1.10
2023-01-15T06:53:31.180Z,1.10
2023-01-15T06:56:02.906Z,1.00
2023-01-15T06:58:34.670Z,0.97
2023-01-15T07:01:15.187Z,0.83
2023-01-15T07:03:47.041Z,0.80
2023-01-15T07:06:18.790Z,0.80
2023-01-15T07:08:50.549Z,0.90
2023-01-15T07:11:22.274Z,0.93
2023-01-15T07:14:05.851Z,1.00
2023-01-15T07:16:37.947Z,1.30
2023-01-15T07:19:09.987Z,1.00
2023-01-15T07:21:41.724Z,0.97
2023-01-15T07:24:14.305Z,1.00
2023-01-15T07:26:46.463Z,1.10
2023-01-15T07:29:18.272Z,1.23
2023-01-15T07:31:51.125Z,0.87
2023-01-15T07:34:22.940Z,1.30
2023-01-15T07:36:54.643Z,1.17
2023-01-15T07:39:26.380Z,0.87
2023-01-15T07:42:16.832Z,0.90
2023-01-15T07:45:08.476Z,0.90
2023-01-15T07:47:58.974Z,1.23
2023-01-15T07:50:30.732Z,0.90
2023-01-15T07:53:02.428Z,0.90
2023-01-15T07:55:36.023Z,0.77
2023-01-15T07:58:07.741Z,1.00
2023-01-15T08:00:41.202Z,1.13
2023-01-15T08:03:13.656Z,0.93
2023-01-15T08:05:45.364Z,1.40
2023-01-15T08:08:18.104Z,1.17
2023-01-15T08:11:08.345Z,1.03
2023-01-15T08:14:06.400Z,0.90
2023-01-15T08:16:38.187Z,0.90
2023-01-15T08:19:09.905Z,0.67
2023-01-15T08:21:41.617Z,1.30
2023-01-15T08:24:13.799Z,0.73
2023-01-15T08:26:45.477Z,0.80
2023-01-15T08:29:17.188Z,1.00
2023-01-15T08:31:49.067Z,0.67
2023-01-15T08:34:20.973Z,0.93
2023-01-15T08:36:59.797Z,0.87
2023-01-15T08:39:31.725Z,0.90
2023-01-15T08:42:03.545Z,0.90
2023-01-15T08:44:35.379Z,0.60
2023-01-15T08:47:07.090Z,1.20
2023-01-15T08:49:38.848Z,0.83
2023-01-15T08:52:10.543Z,1.00
2023-01-15T08:54:43.293Z,1.00
2023-01-15T08:57:14.982Z,1.00
2023-01-15T08:59:47.918Z,0.83
2023-01-15T09:02:19.857Z,1.00
2023-01-15T09:04:52.686Z,0.80
2023-01-15T09:07:24.675Z,0.80
2023-01-15T09:09:56.463Z,1.00
2023-01-15T09:12:29.233Z,0.80
2023-01-15T09:15:03.118Z,1.07
2023-01-15T09:17:39.555Z,1.30
2023-01-15T09:20:13.849Z,1.10
2023-01-15T09:22:45.802Z,1.80
2023-01-15T09:25:19.473Z,2.57
2023-01-15T09:27:51.233Z,2.87
2023-01-15T09:30:23.248Z,1.87
2023-01-15T09:32:55.084Z,1.13
2023-01-15T09:35:26.825Z,1.00
2023-01-15T09:37:58.556Z,0.30
2023-01-15T09:40:56.544Z,0.57
2023-01-15T09:43:50.972Z,0.43
2023-01-15T09:46:43.301Z,0.67
2023-01-15T09:49:28.416Z,0.57
2023-01-15T09:52:02.909Z,0.47
2023-01-15T09:54:49.785Z,0.30
2023-01-15T09:57:24.639Z,0.10
2023-01-15T10:00:05.305Z,0.10
2023-01-15T10:02:52.931Z,0.00
2023-01-15T10:05:52.636Z,0.00
2023-01-15T10:08:49.156Z,0.00
2023-01-15T10:11:48.027Z,0.10
2023-01-15T10:14:43.734Z,0.00
2023-01-15T10:17:21.951Z,0.10
2023-01-15T10:19:54.343Z,0.00
2023-01-15T10:23:02.313Z,0.00
2023-01-15T10:25:49.983Z,0.10
2023-01-15T10:28:35.970Z,0.00
2023-01-15T10:31:18.935Z,0.00
2023-01-15T10:34:28.063Z,0.00
2023-01-15T10:37:20.844Z,0.00
2023-01-15T10:40:09.874Z,0.10
2023-01-15T10:43:00.686Z,0.00
2023-01-15T10:45:41.254Z,0.20
2023-01-15T10:48:53.003Z,0.10
2023-01-15T10:51:34.302Z,0.10
2023-01-15T10:54:21.032Z,0.10
2023-01-15T10:57:11.269Z,0.10
2023-01-15T11:00:12.554Z,0.10
2023-01-15T11:03:02.728Z,0.10
2023-01-15T11:05:36.024Z,0.10
2023-01-15T11:08:58.347Z,0.10
2023-01-15T11:11:51.254Z,0.20
2023-01-15T11:15:01.913Z,0.10
2023-01-15T11:18:09.969Z,0.00
2023-01-15T11:20:46.282Z,0.20
2023-01-15T11:23:22.358Z,0.27
2023-01-15T11:26:00.237Z,0.10
2023-01-15T11:28:40.355Z,0.37
2023-01-15T11:31:13.779Z,0.40
2023-01-15T11:33:59.603Z,0.37
2023-01-15T11:36:32.064Z,0.50
2023-01-15T11:39:03.892Z,0.10
2023-01-15T11:41:54.647Z,0.20
2023-01-15T11:44:45.057Z,0.00
2023-01-15T11:47:37.713Z,0.10
2023-01-15T11:50:37.460Z,0.10
2023-01-15T11:53:18.517Z,0.00
2023-01-15T11:56:00.856Z,0.00
2023-01-15T11:58:38.936Z,0.00
2023-01-15T12:01:30.796Z,0.10
2023-01-15T12:04:06.326Z,0.10
2023-01-15T12:06:40.828Z,0.13
2023-01-15T12:09:30.911Z,0.00
2023-01-15T12:12:08.336Z,0.20
2023-01-15T12:14:53.373Z,0.10
2023-01-15T12:17:25.100Z,0.03
2023-01-15T12:20:02.697Z,0.10
2023-01-15T12:23:02.071Z,0.90
2023-01-15T12:26:01.263Z,0.53
2023-01-15T12:28:38.340Z,0.70
2023-01-15T12:31:18.870Z,0.57
2023-01-15T12:34:05.796Z,0.30
2023-01-15T12:36:43.041Z,0.20
2023-01-15T12:39:21.744Z,0.57
2023-01-15T12:42:17.074Z,0.17
2023-01-15T12:45:01.578Z,0.10
2023-01-15T12:48:00.124Z,0.10
2023-01-15T12:50:52.548Z,0.00
2023-01-15T12:54:01.567Z,0.10
2023-01-15T12:56:56.277Z,0.20
2023-01-15T13:00:00.994Z,0.00
2023-01-15T13:02:37.959Z,0.20
2023-01-15T13:05:20.035Z,0.20
2023-01-15T13:08:01.361Z,0.10
2023-01-15T13:10:36.443Z,0.10
2023-01-15T13:13:24.754Z,0.10
2023-01-15T13:16:36.123Z,0.10
2023-01-15T13:19:33.898Z,0.00
2023-01-15T13:22:15.455Z,0.10
2023-01-15T13:24:54.031Z,0.10
2023-01-15T13:27:48.941Z,0.10
2023-01-15T13:30:29.693Z,0.17
2023-01-15T13:33:27.128Z,0.10
2023-01-15T13:36:16.279Z,0.10
2023-01-15T13:38:52.485Z,0.10
2023-01-15T13:41:48.052Z,0.07
2023-01-15T13:44:23.186Z,0.10
2023-01-15T13:47:08.427Z,0.10
2023-01-15T13:49:47.009Z,0.10
2023-01-15T13:52:32.517Z,0.20
2023-01-15T13:55:20.352Z,0.00
2023-01-15T13:57:52.229Z,0.00
2023-01-15T14:00:39.992Z,0.00
2023-01-15T14:03:26.706Z,0.20
2023-01-15T14:06:00.516Z,0.07
2023-01-15T14:08:44.602Z,0.10
2023-01-15T14:11:54.072Z,0.20
2023-01-15T14:14:34.461Z,0.10
2023-01-15T14:17:26.403Z,0.10
2023-01-15T14:20:03.836Z,0.80
2023-01-15T14:22:41.451Z,0.10
2023-01-15T14:25:13.199Z,0.10
2023-01-15T14:28:06.580Z,0.10
2023-01-15T14:31:02.713Z,0.30
2023-01-15T14:33:45.931Z,0.20
2023-01-15T14:36:20.782Z,0.67
2023-01-15T14:38:59.836Z,0.40
2023-01-15T14:41:58.488Z,0.40
2023-01-15T14:44:32.564Z,0.10
2023-01-15T14:47:06.683Z,0.30
2023-01-15T14:49:49.803Z,0.20
2023-01-15T14:52:24.171Z,0.30
2023-01-15T14:54:56.670Z,0.40
2023-01-15T14:57:28.710Z,0.27
2023-01-15T15:00:04.072Z,0.20
2023-01-15T15:02:43.761Z,0.27
2023-01-15T15:05:21.864Z,0.30
2023-01-15T15:07:55.207Z,0.47
2023-01-15T15:10:33.721Z,0.30
2023-01-15T15:13:28.693Z,0.13
2023-01-15T15:16:12.634Z,0.30
2023-01-15T15:19:00.271Z,0.50
2023-01-15T15:21:35.626Z,0.67
2023-01-15T15:24:30.248Z,0.70
2023-01-15T15:27:24.419Z,0.60
2023-01-15T15:30:07.598Z,0.63
2023-01-15T15:32:41.169Z,0.50
2023-01-15T15:35:26.136Z,0.63
2023-01-15T15:38:06.011Z,0.50
2023-01-15T15:40:38.050Z,0.50
2023-01-15T15:43:44.371Z,0.60
2023-01-15T15:46:47.501Z,0.37
2023-01-15T15:49:20.254Z,0.80
2023-01-15T15:51:54.059Z,0.43
2023-01-15T15:54:28.219Z,0.50
2023-01-15T15:57:07.042Z,0.37
2023-01-15T15:59:52.813Z,0.70
2023-01-15T16:02:36.428Z,0.37
2023-01-15T16:05:24.250Z,0.43
2023-01-15T16:07:56.409Z,0.40
2023-01-15T16:10:35.050Z,0.40
2023-01-15T16:13:12.972Z,0.50
2023-01-15T16:15:48.454Z,0.47
2023-01-15T16:18:31.455Z,0.43
2023-01-15T16:21:03.360Z,0.50
2023-01-15T16:23:35.109Z,0.27
2023-01-15T16:26:19.777Z,0.40
2023-01-15T16:28:55.137Z,0.40
2023-01-15T16:31:28.628Z,0.30
2023-01-15T16:34:00.831Z,0.80
2023-01-15T16:36:42.027Z,0.80
2023-01-15T16:39:30.723Z,1.27
2023-01-15T16:42:02.548Z,1.43
2023-01-15T16:44:49.717Z,0.80
2023-01-15T16:47:31.496Z,1.33
2023-01-15T16:50:21.873Z,1.00
2023-01-15T16:53:00.322Z,0.60
2023-01-15T16:55:42.396Z,0.60
2023-01-15T16:58:19.596Z,0.40
2023-01-15T17:00:53.431Z,0.90
2023-01-15T17:03:26.899Z,0.50
2023-01-15T17:06:05.553Z,0.80
2023-01-15T17:08:38.826Z,0.97
2023-01-15T17:11:24.248Z,0.50
2023-01-15T17:14:26.804Z,0.60
2023-01-15T17:17:17.562Z,0.60
2023-01-15T17:19:50.795Z,0.60
2023-01-15T17:22:29.278Z,0.57
2023-01-15T17:25:01.823Z,0.67
2023-01-15T17:27:33.519Z,1.03
2023-01-15T17:30:05.757Z,0.67
2023-01-15T17:32:39.669Z,0.70
2023-01-15T17:35:35.574Z,0.30
2023-01-15T17:38:11.742Z,0.80
2023-01-15T17:40:43.603Z,0.73
2023-01-15T17:43:15.962Z,0.43
2023-01-15T17:45:47.941Z,0.40
2023-01-15T17:48:19.677Z,0.40
2023-01-15T17:50:51.886Z,0.40
2023-01-15T17:53:23.656Z,0.30
2023-01-15T17:56:14.351Z,0.50
2023-01-15T17:59:06.337Z,0.43
2023-01-15T18:02:13.426Z,0.10
2023-01-15T18:05:11.505Z,0.50
2023-01-15T18:07:45.097Z,0.60
2023-01-15T18:10:18.894Z,0.53
2023-01-15T18:12:51.496Z,0.60
2023-01-15T18:15:23.263Z,0.53
2023-01-15T18:17:55.102Z,0.50
2023-01-15T18:20:26.811Z,1.10
2023-01-15T18:22:58.593Z,0.50
2023-01-15T18:25:30.301Z,0.87
2023-01-15T18:28:02.060Z,0.47
2023-01-15T18:30:34.019Z,0.70
2023-01-15T18:33:07.072Z,0.70
2023-01-15T18:35:38.786Z,0.40
2023-01-15T18:38:10.505Z,0.50
2023-01-15T18:40:42.198Z,0.60
2023-01-15T18:43:32.791Z,0.53
2023-01-15T18:46:35.344Z,0.30
2023-01-15T18:49:07.169Z,0.60
2023-01-15T18:51:38.852Z,0.57
2023-01-15T18:54:10.559Z,0.60
2023-01-15T18:56:42.840Z,0.60
2023-01-15T18:59:15.384Z,0.43
2023-01-15T19:01:47.212Z,0.50
2023-01-15T19:04:20.446Z,0.90
2023-01-15T19:06:52.330Z,0.80
2023-01-15T19:09:24.382Z,0.90
2023-01-15T19:11:56.823Z,0.63
2023-01-15T19:14:47.408Z,0.70
2023-01-15T19:17:48.150Z,0.83
2023-01-15T19:20:20.470Z,0.73
2023-01-15T19:23:05.005Z,0.70
2023-01-15T19:25:44.312Z,0.60
2023-01-15T19:28:18.935Z,0.73
2023-01-15T19:31:09.405Z,0.83
2023-01-15T19:33:41.165Z,2.27
2023-01-15T19:36:12.916Z,1.00
2023-01-15T19:38:44.609Z,1.07
2023-01-15T19:41:35.071Z,0.80
2023-01-15T19:44:26.808Z,0.80
2023-01-15T19:47:17.343Z,0.90
2023-01-15T19:50:07.947Z,0.70
2023-01-15T19:52:41.060Z,0.60
2023-01-15T19:55:17.660Z,0.57
2023-01-15T19:57:59.962Z,0.70
2023-01-15T20:00:34.900Z,0.60
2023-01-15T20:03:11.504Z,0.40
2023-01-15T20:05:44.155Z,0.60
2023-01-15T20:08:17.988Z,1.00
2023-01-15T20:10:50.831Z,0.87
2023-01-15T20:13:42.227Z,0.50
2023-01-15T20:16:17.638Z,0.40
2023-01-15T20:18:50.547Z,0.37
2023-01-15T20:21:22.293Z,0.80
2023-01-15T20:23:54.016Z,0.53
2023-01-15T20:26:27.538Z,0.20
2023-01-15T20:28:59.261Z,0.40
2023-01-15T20:31:31.185Z,0.30
2023-01-15T20:34:02.873Z,0.70
2023-01-15T20:36:35.595Z,0.60
2023-01-15T20:39:07.331Z,0.50
2023-01-15T20:41:57.770Z,0.30
2023-01-15T20:44:48.119Z,0.30
2023-01-15T20:47:44.124Z,0.50
2023-01-15T20:50:16.920Z,0.40
2023-01-15T20:52:50.977Z,0.50
2023-01-15T20:55:31.220Z,0.67
2023-01-15T20:58:05.027Z,0.63
2023-01-15T21:00:36.793Z,0.50
2023-01-15T21:03:09.860Z,0.50
2023-01-15T21:05:41.588Z,1.40
2023-01-15T21:08:13.342Z,0.53
2023-01-15T21:10:45.089Z,0.53
2023-01-15T21:13:16.767Z,0.73
2023-01-15T21:16:00.402Z,0.70
2023-01-15T21:18:35.541Z,0.70
2023-01-15T21:21:12.111Z,0.30
2023-01-15T21:23:45.622Z,0.50
2023-01-15T21:26:17.811Z,0.73
2023-01-15T21:28:53.492Z,0.30
2023-01-15T21:31:25.349Z,0.30
2023-01-15T21:33:57.405Z,0.33
2023-01-15T21:36:29.124Z,0.10
2023-01-15T21:39:01.300Z,0.67
2023-01-15T21:41:51.657Z,0.50
2023-01-15T21:44:34.386Z,0.70
2023-01-15T21:47:08.173Z,0.50
2023-01-15T21:49:40.998Z,0.43
2023-01-15T21:52:18.276Z,0.33
2023-01-15T21:54:50.065Z,0.47
2023-01-15T21:57:22.445Z,0.70
2023-01-15T21:59:54.151Z,0.30
2023-01-15T22:02:27.770Z,0.60
2023-01-15T22:04:59.532Z,0.60
2023-01-15T22:07:31.298Z,0.40
2023-01-15T22:10:03.540Z,0.60
2023-01-15T22:12:39.357Z,0.57
2023-01-15T22:15:11.821Z,0.50
2023-01-15T22:17:43.522Z,0.47
2023-01-15T22:20:15.302Z,0.50
2023-01-15T22:22:48.590Z,0.20
2023-01-15T22:25:20.329Z,0.70
2023-01-15T22:27:52.176Z,0.30
2023-01-15T22:30:23.869Z,0.50
2023-01-15T22:32:55.560Z,0.30
2023-01-15T22:35:27.274Z,0.40
2023-01-15T22:37:59.071Z,0.60
2023-01-15T22:40:31.112Z,0.30
2023-01-15T22:43:02.816Z,0.37
2023-01-15T22:45:34.590Z,0.50
2023-01-15T22:48:06.520Z,0.60
2023-01-15T22:50:38.465Z,0.20
2023-01-15T22:53:10.233Z,0.10
2023-01-15T22:55:41.987Z,0.50
2023-01-15T22:58:14.117Z,0.30
2023-01-15T23:00:45.816Z,0.30
2023-01-15T23:03:17.988Z,0.40
2023-01-15T23:05:50.106Z,0.40
2023-01-15T23:08:21.858Z,0.40
2023-01-15T23:10:53.627Z,0.30
2023-01-15T23:13:25.368Z,0.60
2023-01-15T23:15:58.782Z,0.30
2023-01-15T23:18:30.648Z,0.40
2023-01-15T23:21:03.551Z,0.30
2023-01-15T23:23:36.220Z,0.43
2023-01-15T23:26:11.460Z,0.63
2023-01-15T23:28:43.926Z,0.30
2023-01-15T23:31:15.704Z,0.50
2023-01-15T23:33:47.823Z,0.20
2023-01-15T23:36:19.555Z,0.30
2023-01-15T23:38:51.334Z,0.73
2023-01-15T23:41:43.264Z,0.10
2023-01-15T23:44:39.132Z,1.07
2023-01-15T23:47:10.917Z,0.50
2023-01-15T23:49:42.635Z,0.70
2023-01-15T23:52:14.364Z,0.10
2023-01-15T23:54:46.037Z,0.60
2023-01-15T23:57:17.746Z,0.10
2023-01-15T23:59:49.495Z,0.40
